Last 6 Hours

Alpine-Summit 8643' (Ward Mt.)

15 Minute Data | America/Los_Angeles
as of 12/15/19 10:59 AM PST
Date & Time Temp (°F) RH (%) Dew Pt (°F) Wet Bulb (°F) Wind Dir (°) Wind Spd (mph) Wind Gust (mph) WindChill (°F)
12/15/19 - 1045 21.0 98 20.6 20.9 ENE | 64 17.4 23.3 6.3
12/15/19 - 1030 20.5 98 20.0 20.3 ENE | 59 20.1 24.6 4.4
12/15/19 - 1015 19.7 97 19.1 19.5 ENE | 62 22.3 27.1 2.5
12/15/19 - 1000 18.7 97 18.0 18.5 ENE | 69 19.9 23.1 2.0
12/15/19 - 0945 17.9 97 17.2 17.7 ENE | 66 18.2 23.2 1.9
12/15/19 - 0930 17.5 97 16.8 17.3 NE | 53 14.2 17.4 3.3
12/15/19 - 0915 17.3 97 16.6 17.1 ENE | 57 14.3 18.9 2.9
12/15/19 - 0900 16.9 97 16.1 16.7 NE | 51 14.1 19.7 2.6
12/15/19 - 0845 16.6 97 15.8 16.4 ENE | 59 15.9 20.1 1.4
12/15/19 - 0830 16.4 96 15.5 16.1 ENE | 58 15.2 20.2 1.3
12/15/19 - 0815 16.1 96 15.3 15.9 ENE | 59 12.6 17.1 2.5
12/15/19 - 0800 16.0 96 15.1 15.7 ENE | 57 13.8 19.2 1.7
12/15/19 - 0745 15.7 96 14.8 15.4 NNE | 30 10.3 14.2 3.3
12/15/19 - 0730 15.7 96 14.8 15.4 NE | 39 3.6 13.3 11.4
12/15/19 - 0715 15.9 96 15.0 15.6 NE | 42 2.3 7.6 13.0
12/15/19 - 0700 16.0 96 15.0 15.7 NNW | 339 0.9 5.5 15.6
12/15/19 - 0645 15.6 96 14.6 15.3 NW | 319 5.1 11.1 8.9
12/15/19 - 0630 15.4 96 14.5 15.1 NW | 311 8.8 15.3 4.2
12/15/19 - 0615 15.3 96 14.3 15.0 WNW | 291 12.8 19.2 1.5
12/15/19 - 0600 15.3 96 14.3 15.0 W | 278 21.7 32.3 -2.3
12/15/19 - 0545 15.3 96 14.3 15.0 W | 277 23.0 30.1 -3.0
12/15/19 - 0530 15.3 96 14.3 15.0 W | 280 18.3 25.2 -1.2
12/15/19 - 0515 15.2 96 14.2 14.9 WNW | 299 21.2 32.2 -2.4
12/15/19 - 0500 15.2 96 14.2 14.9 W | 273 31.8 43.1 -5.7
Max 21.0 98 20.6 20.9 - 31.8 43.1 15.6
Avg 16.7 96 15.9 16.4 - 14.9 21.0 3.2
Min 15.2 96 14.2 14.9 - 0.9 5.5 -5.7